Time;durP1;ratioP1;P1;durP2;ratioP2;P2;SDS_P1;SDS_P2;PMS_P1;PMS_P2;Temp;Humidity;BMP_temperature;BMP_pressure;BME280_temperature;BME280_humidity;BME280_pressure;Samples;Min_cycle;Max_cycle;Signal;HPM_P1;HPM_P2
2023/02/19 00:00:57;;;;;;;5.00;4.50;;;9.40;99.90;;;;;;5008238;28;20831;-74
2023/02/19 00:03:23;;;;;;;6.47;4.97;;;9.30;99.90;;;;;;5008404;28;20432;-73
2023/02/19 00:05:48;;;;;;;4.73;4.33;;;9.30;99.90;;;;;;5011617;28;20380;-73
2023/02/19 00:08:14;;;;;;;5.00;4.50;;;9.30;99.90;;;;;;4994291;28;20317;-74
2023/02/19 00:10:39;;;;;;;6.60;4.60;;;9.40;99.90;;;;;;5003652;28;20190;-73
2023/02/19 00:13:05;;;;;;;5.03;4.63;;;9.30;99.90;;;;;;5012075;28;20718;-73
2023/02/19 00:15:33;;;;;;;5.30;4.80;;;9.30;99.90;;;;;;5011420;28;20189;-74
2023/02/19 00:17:59;;;;;;;5.03;4.60;;;9.30;99.90;;;;;;5011788;28;20544;-73
2023/02/19 00:20:24;;;;;;;6.90;5.60;;;9.30;99.90;;;;;;5011761;28;20468;-71
2023/02/19 00:22:50;;;;;;;5.43;5.03;;;9.20;99.90;;;;;;5011491;28;20208;-73
2023/02/19 00:25:15;;;;;;;5.30;4.80;;;9.20;99.90;;;;;;5011519;28;20179;-73
2023/02/19 00:27:41;;;;;;;6.03;5.43;;;9.20;99.90;;;;;;5011196;28;20662;-73
2023/02/19 00:30:07;;;;;;;5.20;4.80;;;9.20;99.90;;;;;;5011711;28;20196;-76
2023/02/19 00:32:32;;;;;;;5.60;5.10;;;9.20;99.90;;;;;;5011113;28;20272;-74
2023/02/19 00:34:58;;;;;;;6.20;5.43;;;9.20;99.90;;;;;;5011366;28;20425;-73
2023/02/19 00:37:23;;;;;;;5.50;4.87;;;9.20;99.90;;;;;;5011587;28;20217;-73
2023/02/19 00:39:49;;;;;;;6.80;5.50;;;9.20;99.90;;;;;;5011107;28;20207;-72
2023/02/19 00:42:15;;;;;;;5.80;4.80;;;9.30;99.90;;;;;;5011637;28;20221;-73
2023/02/19 00:44:40;;;;;;;5.43;4.93;;;9.30;99.90;;;;;;5003245;28;20260;-73
2023/02/19 00:47:05;;;;;;;6.37;5.10;;;9.30;99.90;;;;;;5003663;28;20187;-74
2023/02/19 00:49:31;;;;;;;6.17;5.57;;;9.30;99.90;;;;;;5010904;28;20194;-74
2023/02/19 00:51:57;;;;;;;9.53;5.00;;;9.30;99.90;;;;;;5011343;28;20215;-73
2023/02/19 00:54:22;;;;;;;6.03;5.53;;;9.40;99.90;;;;;;5011359;28;20217;-73
2023/02/19 00:56:49;;;;;;;6.90;5.50;;;9.40;99.90;;;;;;5010794;28;20198;-75
2023/02/19 00:59:14;;;;;;;4.90;4.50;;;9.40;99.90;;;;;;5011134;28;20212;-75
2023/02/19 01:01:40;;;;;;;8.10;4.17;;;9.40;99.90;;;;;;5010959;28;20440;-74
2023/02/19 01:04:06;;;;;;;5.17;4.50;;;9.50;99.90;;;;;;5011111;28;20185;-73
2023/02/19 01:06:33;;;;;;;4.13;3.73;;;9.40;99.90;;;;;;5010958;28;20181;-75
2023/02/19 01:08:58;;;;;;;3.80;3.23;;;9.40;99.90;;;;;;5010846;28;20186;-73
2023/02/19 01:11:26;;;;;;;4.00;3.13;;;9.50;99.90;;;;;;5011040;28;20448;-73
2023/02/19 01:13:51;;;;;;;2.83;2.63;;;9.50;99.90;;;;;;5009670;28;21464;-74
2023/02/19 01:16:20;;;;;;;2.83;2.63;;;9.50;99.90;;;;;;5011007;28;20422;-74
2023/02/19 01:18:46;;;;;;;2.53;2.40;;;9.60;99.90;;;;;;5010516;28;20182;-75
2023/02/19 01:21:21;;;;;;;2.70;2.50;;;9.60;99.90;;;;;;5010908;28;20448;-73
2023/02/19 01:23:48;;;;;;;2.67;2.47;;;9.70;99.90;;;;;;5010658;28;20885;-73
2023/02/19 01:26:17;;;;;;;3.03;2.80;;;9.70;99.90;;;;;;5010914;28;20447;-73
2023/02/19 01:28:43;;;;;;;3.63;2.57;;;9.70;99.90;;;;;;5010402;28;20436;-73
2023/02/19 01:31:13;;;;;;;2.20;2.10;;;9.70;99.90;;;;;;5010754;28;20470;-73
2023/02/19 01:33:39;;;;;;;2.20;2.10;;;9.70;99.90;;;;;;5010488;28;20434;-74
2023/02/19 01:36:06;;;;;;;1.87;1.77;;;9.70;99.90;;;;;;5003035;28;20434;-75
2023/02/19 01:38:32;;;;;;;2.10;2.00;;;9.80;99.90;;;;;;5010804;28;20194;-74
2023/02/19 01:41:00;;;;;;;2.40;2.20;;;9.80;99.90;;;;;;5010318;28;21044;-73
2023/02/19 01:43:26;;;;;;;1.87;1.70;;;9.80;99.90;;;;;;5011014;28;20191;-74
2023/02/19 01:45:52;;;;;;;1.80;1.70;;;9.80;99.90;;;;;;5010307;28;20433;-73
2023/02/19 01:48:24;;;;;;;2.10;2.00;;;9.80;99.90;;;;;;5010690;28;20522;-74
2023/02/19 01:50:54;;;;;;;1.97;1.67;;;9.80;99.90;;;;;;5010183;28;20206;-73
2023/02/19 01:53:24;;;;;;;1.93;1.83;;;9.90;99.90;;;;;;5010776;28;20428;-74
2023/02/19 01:55:54;;;;;;;2.47;1.60;;;9.90;99.90;;;;;;5010143;28;20570;-72
2023/02/19 01:58:21;;;;;;;1.93;1.57;;;9.90;99.90;;;;;;5010635;28;20433;-73
2023/02/19 03:31:28;;;;;;;2.03;1.80;;;9.00;99.90;;;;;;5714073;22;20515;-74
2023/02/19 03:33:58;;;;;;;2.03;1.93;;;9.00;99.90;;;;;;5003248;28;20994;-74
2023/02/19 03:36:30;;;;;;;2.63;2.43;;;9.00;99.90;;;;;;5004028;28;20445;-75
2023/02/19 03:39:04;;;;;;;4.30;2.40;;;9.00;99.90;;;;;;5002496;28;20443;-74
2023/02/19 03:41:48;;;;;;;2.47;2.30;;;8.90;99.90;;;;;;4999837;28;20558;-75
2023/02/19 03:44:41;;;;;;;2.20;2.10;;;8.90;99.90;;;;;;4980214;28;20451;-75
2023/02/19 03:47:28;;;;;;;2.07;1.90;;;8.90;99.90;;;;;;4996601;28;20428;-74
2023/02/19 03:50:00;;;;;;;2.43;2.33;;;8.90;99.90;;;;;;5002499;28;20408;-75
2023/02/19 03:52:44;;;;;;;3.07;2.20;;;8.90;99.90;;;;;;5001090;28;20476;-74
2023/02/19 03:55:57;;;;;;;1.60;1.50;;;8.80;99.90;;;;;;4996733;28;20421;-75
2023/02/19 03:58:43;;;;;;;3.40;2.33;;;8.80;99.90;;;;;;4994766;28;20976;-75
2023/02/19 04:01:26;;;;;;;1.43;1.33;;;8.80;99.90;;;;;;4996328;28;20501;-74
2023/02/19 04:03:57;;;;;;;1.30;1.20;;;8.90;99.90;;;;;;5002901;28;21199;-75
2023/02/19 04:06:30;;;;;;;2.63;1.67;;;8.90;99.90;;;;;;4998185;28;20929;-75
2023/02/19 04:09:00;;;;;;;1.83;1.73;;;8.90;99.90;;;;;;5002170;28;20433;-74
2023/02/19 04:11:27;;;;;;;1.73;1.63;;;8.90;99.90;;;;;;4998550;28;20458;-76
2023/02/19 04:14:05;;;;;;;1.53;1.43;;;8.90;99.90;;;;;;5002140;28;20538;-75
2023/02/19 04:16:35;;;;;;;1.20;1.20;;;8.90;99.90;;;;;;5003960;28;20503;-75
2023/02/19 04:19:18;;;;;;;1.73;1.50;;;8.90;99.90;;;;;;5001233;28;20436;-75
2023/02/19 04:21:45;;;;;;;1.67;1.20;;;8.90;99.90;;;;;;5000377;28;20446;-74
2023/02/19 04:24:16;;;;;;;3.03;1.40;;;8.90;99.90;;;;;;5000250;28;21131;-75
2023/02/19 04:26:43;;;;;;;1.10;1.10;;;8.90;99.90;;;;;;5000256;28;20426;-75
2023/02/19 04:29:09;;;;;;;1.00;1.00;;;8.90;99.90;;;;;;4995915;28;20424;-76
2023/02/19 04:31:35;;;;;;;1.13;1.10;;;8.90;99.90;;;;;;4996425;28;21148;-73
2023/02/19 04:34:02;;;;;;;0.80;0.80;;;8.90;99.90;;;;;;5002792;28;20249;-74
2023/02/19 04:36:29;;;;;;;1.07;1.07;;;8.90;99.90;;;;;;4985881;28;20444;-74
2023/02/19 04:38:55;;;;;;;1.50;1.40;;;8.90;99.90;;;;;;5001954;28;20991;-73
2023/02/19 04:41:20;;;;;;;0.87;0.87;;;8.90;99.90;;;;;;4996942;28;20448;-74
2023/02/19 04:43:45;;;;;;;1.87;1.03;;;8.90;99.90;;;;;;5003347;28;20623;-73
2023/02/19 04:46:11;;;;;;;0.83;0.83;;;8.90;99.90;;;;;;5000195;28;20195;-73
2023/02/19 04:48:36;;;;;;;3.60;1.13;;;8.90;99.90;;;;;;4999862;28;20197;-74
2023/02/19 04:51:06;;;;;;;0.80;0.80;;;8.90;99.90;;;;;;5002525;28;20585;-72
2023/02/19 04:53:32;;;;;;;1.73;0.90;;;8.90;99.90;;;;;;5003255;28;20223;-73
2023/02/19 04:56:05;;;;;;;0.80;0.60;;;8.90;99.90;;;;;;5001456;28;20464;-73
2023/02/19 04:58:30;;;;;;;0.50;0.50;;;8.90;99.90;;;;;;4998037;28;20260;-73
2023/02/19 05:00:56;;;;;;;0.67;0.67;;;8.90;99.90;;;;;;5001600;28;20483;-73
2023/02/19 05:03:21;;;;;;;0.50;0.50;;;8.90;99.90;;;;;;4999972;28;20198;-73
2023/02/19 05:05:47;;;;;;;0.40;0.40;;;8.90;99.90;;;;;;5000038;28;20227;-74
2023/02/19 05:08:12;;;;;;;0.60;0.40;;;8.90;99.90;;;;;;5003325;28;20642;-73
2023/02/19 05:10:38;;;;;;;0.60;0.50;;;8.90;99.90;;;;;;5003101;28;20264;-74
2023/02/19 05:13:03;;;;;;;0.47;0.40;;;8.90;99.90;;;;;;5000881;28;20198;-74
2023/02/19 05:15:29;;;;;;;0.43;0.43;;;8.90;99.90;;;;;;4999704;28;20194;-74
2023/02/19 05:17:54;;;;;;;2.30;0.73;;;8.90;99.90;;;;;;5001020;28;20210;-74
2023/02/19 05:20:21;;;;;;;0.40;0.40;;;8.90;99.90;;;;;;5003013;28;20208;-74
2023/02/19 05:22:47;;;;;;;0.40;0.40;;;8.90;99.90;;;;;;5003180;28;20241;-73
2023/02/19 05:25:12;;;;;;;0.47;0.40;;;8.90;99.90;;;;;;5003431;28;20870;-74
2023/02/19 05:27:38;;;;;;;0.40;0.40;;;8.90;99.90;;;;;;5004257;28;20201;-73
2023/02/19 05:30:04;;;;;;;0.60;0.50;;;8.90;99.90;;;;;;5002386;28;20187;-73
2023/02/19 05:32:30;;;;;;;0.40;0.30;;;8.90;99.90;;;;;;4985423;28;21009;-73
2023/02/19 05:34:56;;;;;;;0.40;0.33;;;8.90;99.90;;;;;;5011338;28;20185;-73
2023/02/19 05:37:21;;;;;;;0.70;0.40;;;8.90;99.90;;;;;;5014200;28;20414;-73
2023/02/19 05:39:48;;;;;;;0.40;0.30;;;8.90;99.90;;;;;;5015275;28;20296;-74
2023/02/19 05:42:14;;;;;;;0.70;0.40;;;8.90;99.90;;;;;;5007533;28;20190;-74
2023/02/19 05:44:40;;;;;;;0.40;0.40;;;8.90;99.90;;;;;;4999841;28;20413;-75
2023/02/19 05:47:06;;;;;;;0.50;0.47;;;8.90;99.90;;;;;;4995596;28;20416;-74
2023/02/19 05:49:31;;;;;;;0.47;0.40;;;8.90;99.90;;;;;;4995682;28;20516;-73
2023/02/19 05:51:57;;;;;;;0.40;0.40;;;8.90;99.90;;;;;;4995433;28;20202;-74
2023/02/19 05:54:22;;;;;;;0.40;0.40;;;8.90;99.90;;;;;;4995368;28;20218;-75
2023/02/19 05:56:48;;;;;;;0.40;0.40;;;8.90;99.90;;;;;;4995185;28;20273;-76
2023/02/19 05:59:19;;;;;;;0.43;0.40;;;8.90;99.90;;;;;;4995444;28;20641;-75
2023/02/19 06:01:46;;;;;;;0.80;0.47;;;8.80;99.90;;;;;;4995136;28;20675;-76
2023/02/19 06:04:12;;;;;;;0.93;0.50;;;8.80;99.90;;;;;;4995376;28;20421;-74
2023/02/19 06:06:39;;;;;;;0.70;0.50;;;8.80;99.90;;;;;;4995033;28;20416;-73
2023/02/19 06:09:05;;;;;;;0.40;0.40;;;8.80;99.90;;;;;;5013665;28;20415;-73
2023/02/19 06:11:31;;;;;;;0.40;0.40;;;8.80;99.90;;;;;;5008788;28;20527;-72
2023/02/19 06:13:56;;;;;;;0.57;0.30;;;8.80;99.90;;;;;;5004258;28;20445;-73
2023/02/19 06:16:22;;;;;;;0.40;0.40;;;8.80;99.90;;;;;;5014516;28;20183;-73
2023/02/19 06:18:48;;;;;;;0.40;0.40;;;8.80;99.90;;;;;;5014516;28;20190;-75
2023/02/19 06:21:15;;;;;;;0.40;0.40;;;8.80;99.90;;;;;;5006310;28;20209;-75
2023/02/19 06:23:41;;;;;;;0.50;0.40;;;8.80;99.90;;;;;;5007367;28;20435;-73
2023/02/19 06:26:12;;;;;;;0.93;0.43;;;8.80;99.90;;;;;;5013238;28;20424;-74
2023/02/19 06:28:38;;;;;;;0.40;0.33;;;8.70;99.90;;;;;;5000095;28;20176;-72
2023/02/19 06:31:04;;;;;;;0.53;0.40;;;8.70;99.90;;;;;;5012889;28;21066;-73
2023/02/19 06:33:31;;;;;;;0.40;0.40;;;8.70;99.90;;;;;;5001619;28;20418;-73
2023/02/19 06:35:58;;;;;;;0.40;0.30;;;8.70;99.90;;;;;;4978242;28;20429;-72
2023/02/19 06:38:24;;;;;;;0.40;0.40;;;8.80;99.90;;;;;;5006259;28;20424;-73
2023/02/19 06:40:50;;;;;;;0.40;0.40;;;8.70;99.90;;;;;;5013079;28;20825;-72
2023/02/19 06:43:16;;;;;;;0.40;0.40;;;8.70;99.90;;;;;;4997567;28;20421;-75
2023/02/19 06:45:41;;;;;;;0.60;0.50;;;8.80;99.90;;;;;;5006351;28;20177;-74
2023/02/19 06:48:07;;;;;;;2.00;0.60;;;8.80;99.90;;;;;;4994079;28;20202;-72
2023/02/19 06:50:32;;;;;;;0.50;0.50;;;8.80;99.90;;;;;;4999584;28;20209;-73
2023/02/19 06:52:58;;;;;;;0.50;0.40;;;8.90;99.90;;;;;;5004864;28;20264;-73
2023/02/19 06:55:23;;;;;;;2.70;0.70;;;8.80;99.90;;;;;;4998361;28;20611;-77
2023/02/19 06:57:49;;;;;;;0.50;0.50;;;8.80;99.90;;;;;;5013963;28;20181;-73
2023/02/19 07:00:15;;;;;;;0.53;0.53;;;8.80;99.90;;;;;;5013708;28;20270;-74
2023/02/19 07:02:40;;;;;;;0.73;0.67;;;8.80;99.90;;;;;;4999026;28;20205;-73
2023/02/19 07:05:06;;;;;;;0.70;0.70;;;8.90;99.90;;;;;;4996174;28;20436;-74
2023/02/19 07:07:32;;;;;;;1.40;1.00;;;8.90;99.90;;;;;;5013514;28;20177;-72
2023/02/19 07:09:57;;;;;;;0.60;0.60;;;8.90;99.90;;;;;;5013788;28;20205;-73
2023/02/19 07:12:23;;;;;;;0.60;0.60;;;8.90;99.90;;;;;;5009449;28;20221;-74
2023/02/19 07:14:48;;;;;;;0.73;0.70;;;9.00;99.90;;;;;;5002110;28;20544;-75
2023/02/19 07:17:14;;;;;;;0.77;0.77;;;9.00;99.90;;;;;;4997887;28;20228;-72
2023/02/19 07:19:39;;;;;;;0.70;0.70;;;9.00;99.90;;;;;;5014211;28;20305;-75
2023/02/19 07:22:05;;;;;;;0.97;0.97;;;9.00;99.90;;;;;;5013646;28;20219;-73
2023/02/19 07:24:30;;;;;;;2.00;0.60;;;9.00;99.90;;;;;;5014193;28;20229;-72
2023/02/19 07:26:55;;;;;;;1.03;0.60;;;9.00;99.90;;;;;;4980718;28;20181;-75
2023/02/19 07:29:21;;;;;;;0.77;0.63;;;9.00;99.90;;;;;;5013903;28;20186;-72
2023/02/19 07:31:46;;;;;;;0.60;0.50;;;9.00;99.90;;;;;;5013009;28;20222;-73
2023/02/19 07:34:12;;;;;;;0.73;0.70;;;9.00;99.90;;;;;;5013241;28;20186;-73
2023/02/19 07:36:38;;;;;;;0.80;0.80;;;9.10;99.90;;;;;;5012819;28;20193;-73
2023/02/19 07:39:03;;;;;;;2.80;1.00;;;9.10;99.90;;;;;;5012919;28;20180;-73
2023/02/19 07:41:29;;;;;;;1.03;0.80;;;9.10;99.90;;;;;;5012837;28;20240;-74
2023/02/19 07:43:54;;;;;;;1.43;1.33;;;9.10;99.90;;;;;;5012988;28;20184;-75
2023/02/19 07:46:20;;;;;;;1.30;1.03;;;9.20;99.90;;;;;;5004779;28;20180;-73
2023/02/19 07:48:46;;;;;;;1.33;1.27;;;9.20;99.90;;;;;;5012488;28;20660;-73
2023/02/19 07:51:17;;;;;;;4.13;0.80;;;9.20;99.90;;;;;;5009715;28;20523;-73
2023/02/19 07:53:45;;;;;;;1.00;0.87;;;9.30;99.90;;;;;;4992981;28;20249;-76
2023/02/19 07:56:11;;;;;;;1.20;1.10;;;9.30;99.90;;;;;;4993094;28;20456;-72
2023/02/19 07:58:37;;;;;;;1.50;1.10;;;9.30;99.90;;;;;;4992225;28;20973;-72
2023/02/19 08:01:12;;;;;;;0.80;0.80;;;9.40;99.90;;;;;;5010121;28;20470;-73
2023/02/19 08:03:38;;;;;;;1.23;0.90;;;9.40;99.90;;;;;;5012352;28;20181;-72
2023/02/19 08:06:04;;;;;;;1.70;1.17;;;9.40;99.90;;;;;;4985753;28;20417;-73
2023/02/19 08:08:29;;;;;;;1.17;1.07;;;9.40;99.90;;;;;;4992784;28;20422;-73
2023/02/19 08:13:43;;;;;;;0.80;0.80;;;9.40;99.90;;;;;;5007143;28;20674;-73
2023/02/19 08:16:12;;;;;;;1.13;1.00;;;9.40;99.90;;;;;;5004093;28;20422;-73
2023/02/19 08:18:37;;;;;;;0.93;0.90;;;9.50;99.90;;;;;;5011850;28;20676;-73
2023/02/19 08:21:03;;;;;;;0.97;0.90;;;9.50;99.90;;;;;;5008480;28;20464;-74
2023/02/19 08:23:28;;;;;;;1.20;1.00;;;9.60;99.90;;;;;;4999726;28;20206;-73
2023/02/19 08:25:58;;;;;;;1.80;1.00;;;9.60;99.90;;;;;;4999791;28;20260;-77
2023/02/19 08:28:24;;;;;;;0.80;0.80;;;9.70;99.90;;;;;;5003127;28;20213;-76
2023/02/19 08:30:51;;;;;;;0.93;0.70;;;9.80;99.90;;;;;;5010926;28;20452;-75
2023/02/19 08:33:18;;;;;;;0.80;0.70;;;9.90;99.90;;;;;;5010930;28;21020;-75
2023/02/19 08:35:45;;;;;;;0.70;0.70;;;10.00;99.90;;;;;;5011154;28;20448;-74
2023/02/19 08:38:12;;;;;;;0.70;0.70;;;10.00;99.90;;;;;;5010900;28;20489;-74
2023/02/19 08:40:38;;;;;;;0.53;0.50;;;9.90;99.90;;;;;;5002486;28;20503;-73
2023/02/19 08:43:07;;;;;;;2.53;0.60;;;9.90;99.90;;;;;;5001854;28;20494;-76
2023/02/19 08:45:33;;;;;;;1.37;0.80;;;9.90;99.90;;;;;;4986678;28;20441;-74
2023/02/19 08:47:59;;;;;;;1.00;0.77;;;9.90;99.90;;;;;;5010808;28;20444;-75
2023/02/19 08:50:25;;;;;;;1.00;0.90;;;9.90;99.90;;;;;;5002944;28;20440;-73
2023/02/19 08:52:51;;;;;;;0.70;0.60;;;9.90;99.90;;;;;;5004052;28;20449;-76
2023/02/19 08:55:17;;;;;;;4.67;0.63;;;10.00;99.90;;;;;;5001760;28;20444;-79
2023/02/19 08:57:42;;;;;;;0.60;0.60;;;10.00;99.90;;;;;;5002769;28;20202;-74
2023/02/19 09:00:08;;;;;;;1.27;0.60;;;9.90;99.90;;;;;;5001254;28;20301;-75
2023/02/19 09:02:35;;;;;;;0.60;0.60;;;9.80;99.90;;;;;;5004169;28;20205;-74
2023/02/19 09:05:00;;;;;;;0.63;0.63;;;9.80;99.90;;;;;;5010610;28;20456;-73
2023/02/19 09:07:26;;;;;;;1.13;0.70;;;9.70;99.90;;;;;;5010767;28;20442;-74
2023/02/19 09:09:52;;;;;;;2.10;1.00;;;9.60;99.90;;;;;;5002676;28;20212;-74
2023/02/19 09:12:18;;;;;;;1.23;1.13;;;9.60;99.90;;;;;;5010807;28;20448;-73
2023/02/19 09:14:44;;;;;;;1.93;0.77;;;9.50;99.90;;;;;;4996492;28;20465;-75
2023/02/19 09:17:10;;;;;;;1.33;1.13;;;9.50;99.90;;;;;;5008690;28;20944;-75
2023/02/19 09:19:36;;;;;;;1.53;1.00;;;9.50;99.90;;;;;;5005798;28;20226;-76
2023/02/19 09:22:03;;;;;;;2.10;1.90;;;9.60;99.90;;;;;;5007297;28;20825;-75
2023/02/19 09:24:29;;;;;;;2.63;1.20;;;9.60;99.90;;;;;;4991028;28;20207;-76
2023/02/19 09:26:54;;;;;;;1.17;1.07;;;9.70;99.90;;;;;;4990927;28;20460;-78
2023/02/19 09:29:22;;;;;;;1.40;0.90;;;9.80;99.90;;;;;;5001792;28;20453;-75
2023/02/19 09:31:48;;;;;;;2.03;1.00;;;9.90;99.90;;;;;;4995993;28;20728;-76
2023/02/19 09:34:13;;;;;;;1.80;1.07;;;10.10;99.90;;;;;;5008745;28;20453;-76
2023/02/19 09:36:39;;;;;;;2.10;1.07;;;10.20;99.90;;;;;;5005415;28;20242;-76
2023/02/19 09:39:06;;;;;;;1.80;0.80;;;10.30;99.90;;;;;;4991175;28;20256;-75
2023/02/19 09:41:36;;;;;;;1.23;1.10;;;10.40;99.90;;;;;;4994894;28;20211;-75
2023/02/19 09:44:05;;;;;;;2.07;1.10;;;10.40;99.90;;;;;;5010809;28;20448;-75
2023/02/19 09:46:37;;;;;;;3.33;1.10;;;10.50;99.90;;;;;;4995103;28;20453;-74
2023/02/19 09:49:21;;;;;;;2.97;0.90;;;10.50;99.90;;;;;;5010479;28;20925;-76
2023/02/19 09:51:56;;;;;;;1.43;0.90;;;10.50;99.90;;;;;;5005062;28;20464;-75
2023/02/19 09:54:25;;;;;;;2.80;1.10;;;10.50;99.90;;;;;;4994920;28;20478;-75
2023/02/19 09:56:54;;;;;;;2.47;0.63;;;10.50;99.90;;;;;;5010342;28;20464;-74
2023/02/19 09:59:30;;;;;;;1.20;0.70;;;10.70;99.90;;;;;;5010793;28;20456;-75
2023/02/19 10:02:10;;;;;;;1.57;0.80;;;11.00;99.90;;;;;;5004997;28;20450;-74
2023/02/19 10:04:37;;;;;;;0.90;0.73;;;11.40;99.90;;;;;;5010123;28;20850;-75
2023/02/19 10:07:03;;;;;;;1.90;0.70;;;11.70;99.90;;;;;;5002074;28;20477;-81
2023/02/19 10:09:29;;;;;;;3.27;0.80;;;11.70;99.90;;;;;;5002326;28;20988;-76
2023/02/19 10:11:57;;;;;;;2.43;0.83;;;11.80;99.90;;;;;;5009819;28;20292;-79
2023/02/19 10:14:37;;;;;;;0.87;0.60;;;11.80;99.90;;;;;;5002149;28;20441;-76
2023/02/19 10:17:05;;;;;;;2.83;0.63;;;11.90;99.90;;;;;;5010007;28;20460;-78
2023/02/19 10:19:33;;;;;;;2.10;0.70;;;11.90;99.90;;;;;;5002352;28;20527;-73
2023/02/19 10:22:01;;;;;;;4.93;0.90;;;11.90;99.90;;;;;;4994893;28;20617;-74
2023/02/19 10:24:29;;;;;;;0.70;0.70;;;11.80;99.90;;;;;;5003489;28;20488;-76
2023/02/19 10:26:55;;;;;;;5.47;1.00;;;11.70;99.90;;;;;;5004877;28;20457;-75
2023/02/19 10:29:21;;;;;;;0.60;0.60;;;11.70;99.90;;;;;;5011687;28;20441;-73
2023/02/19 10:31:47;;;;;;;1.63;0.60;;;11.70;99.90;;;;;;4995297;28;20473;-78
2023/02/19 10:34:21;;;;;;;1.00;0.80;;;11.70;99.90;;;;;;5010113;28;20508;-75
2023/02/19 10:36:49;;;;;;;1.43;0.80;;;11.70;99.90;;;;;;5001629;28;21036;-75
2023/02/19 10:39:21;;;;;;;5.40;0.60;;;11.90;99.90;;;;;;4995504;28;20439;-77
2023/02/19 10:41:49;;;;;;;0.70;0.70;;;12.10;99.90;;;;;;5007442;28;20458;-75
2023/02/19 10:44:21;;;;;;;2.10;1.00;;;12.00;99.90;;;;;;5011403;28;20857;-78
2023/02/19 10:46:50;;;;;;;2.40;0.70;;;12.10;99.90;;;;;;5013085;28;20457;-78
2023/02/19 10:49:29;;;;;;;1.10;0.73;;;12.40;99.90;;;;;;5013366;28;20966;-78
2023/02/19 10:51:57;;;;;;;1.60;0.90;;;12.50;99.90;;;;;;5013064;28;21225;-76
2023/02/19 10:54:34;;;;;;;1.10;0.97;;;12.50;99.90;;;;;;5013237;28;20453;-73
2023/02/19 10:57:28;;;;;;;1.87;0.70;;;12.40;99.90;;;;;;5013015;28;20460;-75
2023/02/19 11:00:00;;;;;;;1.17;0.73;;;12.50;99.90;;;;;;5005193;28;20466;-74
2023/02/19 11:02:27;;;;;;;1.13;0.60;;;12.20;99.90;;;;;;5004393;28;20495;-75
2023/02/19 11:05:05;;;;;;;9.00;0.80;;;12.20;99.90;;;;;;5011910;28;20974;-74
2023/02/19 11:07:31;;;;;;;1.83;0.83;;;12.20;99.90;;;;;;5000156;28;20454;-74
2023/02/19 11:09:57;;;;;;;0.80;0.70;;;12.10;99.90;;;;;;5007887;28;20499;-76
2023/02/19 11:12:29;;;;;;;1.30;0.83;;;12.00;99.90;;;;;;5001350;28;20222;-74
2023/02/19 11:14:55;;;;;;;1.80;1.17;;;12.10;99.90;;;;;;5004046;28;20523;-75
2023/02/19 11:17:24;;;;;;;3.17;0.90;;;12.00;99.90;;;;;;5002418;28;20485;-75
2023/02/19 11:19:53;;;;;;;1.83;0.70;;;12.00;99.90;;;;;;5006963;28;20523;-75
2023/02/19 11:22:32;;;;;;;2.33;0.70;;;12.00;99.90;;;;;;5002684;28;20915;-74
2023/02/19 11:25:13;;;;;;;2.40;0.97;;;11.80;99.90;;;;;;4999599;28;20468;-75
2023/02/19 11:28:03;;;;;;;0.80;0.80;;;11.70;99.90;;;;;;5004912;28;20523;-74
2023/02/19 11:30:29;;;;;;;1.63;0.83;;;11.70;99.90;;;;;;5004221;28;20456;-72
2023/02/19 11:32:55;;;;;;;10.23;1.27;;;11.60;99.90;;;;;;4983259;28;20469;-74
2023/02/19 11:35:23;;;;;;;1.57;0.77;;;11.40;99.90;;;;;;5008548;28;20210;-75
2023/02/19 11:38:00;;;;;;;3.07;1.00;;;11.30;99.90;;;;;;5012069;28;20225;-74
2023/02/19 11:40:39;;;;;;;3.43;2.00;;;11.30;99.90;;;;;;5011719;28;20483;-77
2023/02/19 11:43:58;;;;;;;2.67;1.20;;;11.40;99.90;;;;;;5004551;28;20460;-75
2023/02/19 11:46:48;;;;;;;0.93;0.73;;;11.60;99.90;;;;;;4999434;28;20503;-77
2023/02/19 11:49:39;;;;;;;1.00;0.80;;;11.60;99.90;;;;;;5008687;28;20993;-77
2023/02/19 11:52:32;;;;;;;4.40;0.70;;;11.80;99.90;;;;;;5003196;28;20439;-77
2023/02/19 11:55:45;;;;;;;1.37;1.20;;;12.00;99.90;;;;;;4993193;28;20446;-75
2023/02/19 11:58:40;;;;;;;1.77;1.03;;;12.20;99.90;;;;;;4922321;28;20457;-76
2023/02/19 12:01:23;;;;;;;4.93;1.10;;;12.10;99.90;;;;;;5005562;28;20473;-75
2023/02/19 12:04:27;;;;;;;1.27;1.17;;;12.00;99.90;;;;;;4993904;28;20501;-74
2023/02/19 12:07:14;;;;;;;4.50;1.00;;;11.80;99.90;;;;;;4933605;28;20535;-75
2023/02/19 12:10:17;;;;;;;1.53;1.07;;;11.70;99.90;;;;;;4939584;28;20561;-74
2023/02/19 12:12:43;;;;;;;2.93;0.77;;;11.60;99.90;;;;;;4999172;28;20860;-74
2023/02/19 12:15:18;;;;;;;1.10;0.70;;;11.70;99.90;;;;;;5011197;28;20450;-74
2023/02/19 12:17:56;;;;;;;0.70;0.70;;;11.70;99.90;;;;;;4996495;28;20592;-74
2023/02/19 12:20:40;;;;;;;1.10;0.80;;;11.80;99.90;;;;;;5001380;28;20480;-75
2023/02/19 12:23:17;;;;;;;2.63;1.00;;;11.90;99.90;;;;;;5000272;28;21386;-74
2023/02/19 12:26:06;;;;;;;2.40;0.70;;;11.90;99.90;;;;;;5003923;28;20441;-74
2023/02/19 12:28:40;;;;;;;5.70;0.80;;;11.80;99.90;;;;;;5011313;28;20810;-74
2023/02/19 12:31:26;;;;;;;3.07;2.60;;;11.80;99.90;;;;;;4993373;28;20464;-73
2023/02/19 12:34:33;;;;;;;2.03;0.93;;;12.00;99.90;;;;;;5005756;28;20450;-76
2023/02/19 12:37:23;;;;;;;1.17;0.70;;;12.20;99.90;;;;;;4908513;29;20899;-76
2023/02/19 12:40:26;;;;;;;1.43;0.70;;;12.30;99.90;;;;;;4906012;29;20516;-73
2023/02/19 12:43:08;;;;;;;1.10;0.60;;;12.30;99.90;;;;;;5001491;28;20449;-73
2023/02/19 12:45:48;;;;;;;3.67;0.80;;;12.30;99.90;;;;;;5007411;28;20468;-75
2023/02/19 12:48:28;;;;;;;3.13;0.77;;;12.40;99.90;;;;;;4999789;28;20437;-75
2023/02/19 12:51:18;;;;;;;0.60;0.60;;;12.30;99.90;;;;;;4996424;28;20457;-76
2023/02/19 12:54:13;;;;;;;1.00;0.90;;;12.20;99.90;;;;;;5001792;28;20445;-72
2023/02/19 12:57:11;;;;;;;0.90;0.80;;;12.00;99.90;;;;;;5010833;28;20441;-75
2023/02/19 12:59:46;;;;;;;1.33;0.70;;;11.90;99.90;;;;;;4999181;28;20549;-76
2023/02/19 13:02:29;;;;;;;1.87;0.80;;;12.00;99.90;;;;;;4999301;28;20438;-73
2023/02/19 13:05:00;;;;;;;3.00;0.60;;;12.20;99.90;;;;;;5004983;28;20465;-74
2023/02/19 13:07:36;;;;;;;3.80;0.70;;;12.40;99.90;;;;;;4998601;28;21024;-73
2023/02/19 13:10:25;;;;;;;0.67;0.67;;;12.40;99.90;;;;;;4999709;28;20449;-75
2023/02/19 13:12:52;;;;;;;2.07;0.73;;;12.30;99.90;;;;;;4944949;28;20810;-76
2023/02/19 13:15:26;;;;;;;1.77;1.07;;;12.00;99.90;;;;;;4993787;28;20542;-75
2023/02/19 13:17:54;;;;;;;3.57;0.70;;;11.70;99.90;;;;;;4973701;28;21107;-75
2023/02/19 13:20:41;;;;;;;5.10;1.00;;;11.60;99.90;;;;;;5000346;28;20481;-74
2023/02/19 13:26:40;;;;;;;4.90;1.20;;;11.50;99.90;;;;;;5004933;28;20496;-74
2023/02/19 13:29:30;;;;;;;1.30;0.97;;;11.60;99.90;;;;;;5006215;28;20429;-79
2023/02/19 13:32:36;;;;;;;2.37;0.87;;;11.50;99.90;;;;;;4999140;28;20566;-74
2023/02/19 13:35:20;;;;;;;5.13;1.10;;;11.30;99.90;;;;;;5010905;28;20451;-74
2023/02/19 13:37:46;;;;;;;4.30;1.67;;;11.20;99.90;;;;;;5022597;28;21192;-74
2023/02/19 13:40:23;;;;;;;3.23;1.30;;;11.20;99.90;;;;;;5023655;28;20477;-73
2023/02/19 13:42:55;;;;;;;2.30;1.20;;;11.10;99.90;;;;;;5005779;28;21356;-75
2023/02/19 13:45:35;;;;;;;1.80;1.33;;;11.10;99.90;;;;;;5000284;28;20436;-76
2023/02/19 13:48:24;;;;;;;0.97;0.73;;;11.10;99.90;;;;;;5005829;28;20462;-75
2023/02/19 13:51:29;;;;;;;1.57;1.20;;;11.10;99.90;;;;;;5003519;28;20895;-74
2023/02/19 13:53:55;;;;;;;3.27;1.00;;;11.00;99.90;;;;;;4990810;28;20446;-76
2023/02/19 13:56:35;;;;;;;3.30;1.33;;;11.00;99.90;;;;;;5007469;28;20455;-75
2023/02/19 13:59:09;;;;;;;6.03;1.10;;;10.90;99.90;;;;;;5014029;28;20209;-79
2023/02/19 14:01:50;;;;;;;2.07;0.90;;;10.80;99.90;;;;;;5002005;28;20519;-77
2023/02/19 14:04:38;;;;;;;3.93;1.27;;;10.70;99.90;;;;;;5014326;28;21144;-76
2023/02/19 14:07:04;;;;;;;5.17;1.40;;;10.60;99.90;;;;;;5008290;28;20508;-76
2023/02/19 14:09:44;;;;;;;2.57;1.80;;;10.60;99.90;;;;;;5004257;28;20946;-77
2023/02/19 14:12:12;;;;;;;7.63;2.87;;;10.50;99.90;;;;;;5001906;28;20227;-74
2023/02/19 14:14:43;;;;;;;3.93;1.70;;;10.50;99.90;;;;;;5005234;28;20486;-77
2023/02/19 14:17:09;;;;;;;2.40;1.47;;;10.50;99.90;;;;;;5009805;28;20464;-76
2023/02/19 14:19:40;;;;;;;4.03;3.10;;;10.50;99.90;;;;;;5013941;28;20496;-77
2023/02/19 14:22:43;;;;;;;3.73;1.57;;;10.60;99.90;;;;;;5013815;28;20223;-75
2023/02/19 14:25:18;;;;;;;3.10;1.73;;;10.70;99.90;;;;;;5009365;28;20436;-78
2023/02/19 14:27:44;;;;;;;3.43;1.10;;;10.80;99.90;;;;;;4988361;28;20985;-75
2023/02/19 14:30:12;;;;;;;2.10;1.03;;;10.90;99.90;;;;;;5001377;28;20437;-74
2023/02/19 14:32:40;;;;;;;7.03;1.13;;;11.00;99.90;;;;;;5012892;28;21004;-75
2023/02/19 14:35:05;;;;;;;2.07;1.10;;;11.00;99.90;;;;;;4982415;28;20446;-75
2023/02/19 14:37:32;;;;;;;5.33;1.23;;;11.00;99.90;;;;;;5011304;28;20464;-75
2023/02/19 14:39:58;;;;;;;5.93;1.13;;;11.10;99.90;;;;;;4998779;28;20207;-75
2023/02/19 14:42:31;;;;;;;1.63;1.07;;;11.10;99.90;;;;;;5007748;28;20503;-75
2023/02/19 14:44:59;;;;;;;2.00;1.10;;;11.10;99.90;;;;;;5008198;28;20202;-75
2023/02/19 14:47:29;;;;;;;1.60;0.70;;;11.20;99.90;;;;;;4984820;28;20927;-75
2023/02/19 14:50:17;;;;;;;1.30;0.83;;;11.10;99.90;;;;;;4995520;28;20506;-76